createdAt,value
2023-01-07T00:02:26.096Z,1014.0437962316282
2023-01-07T00:07:22.222Z,1013.9991489145842
2023-01-07T00:12:18.512Z,1013.9348753456428
2023-01-07T00:17:14.739Z,1014.0459103004307
2023-01-07T00:22:11.070Z,1013.9291086718437
2023-01-07T00:27:08.293Z,1013.8621644671937
2023-01-07T00:32:05.549Z,1013.9270545354229
2023-01-07T00:37:01.803Z,1013.9938239543069
2023-01-07T00:41:58.046Z,1013.9150229386631
2023-01-07T00:46:54.381Z,1013.9264746083261
2023-01-07T00:51:50.576Z,1013.9764599308573
2023-01-07T00:56:46.860Z,1014.0002677129906
2023-01-07T01:01:43.289Z,1014.0269508859601
2023-01-07T01:06:40.330Z,1014.0071979801634
2023-01-07T01:11:36.598Z,1013.878363779965
2023-01-07T01:16:32.904Z,1013.8890272557555
2023-01-07T01:21:35.118Z,1013.8659267450745
2023-01-07T01:26:35.376Z,1013.9014456451596
2023-01-07T01:31:31.715Z,1013.8849480156489
2023-01-07T01:36:27.914Z,1013.8162561737564
2023-01-07T01:41:24.157Z,1013.8443617180901
2023-01-07T01:46:20.470Z,1013.8535963542656
2023-01-07T01:51:19.706Z,1013.9351790733263
2023-01-07T01:56:18.914Z,1013.8592322968813
2023-01-07T02:01:15.344Z,1013.8177019506492
2023-01-07T02:06:17.395Z,1013.7176732590946
2023-01-07T02:11:19.659Z,1013.6580750626687
2023-01-07T02:16:25.931Z,1013.7581013099427
2023-01-07T02:21:33.173Z,1013.6930848595922
2023-01-07T02:26:50.328Z,1013.5931163606151
2023-01-07T02:32:07.539Z,1013.6025984835761
2023-01-07T02:37:12.803Z,1013.6749974991673
2023-01-07T02:42:19.020Z,1013.6741519895314
2023-01-07T02:47:20.246Z,1013.7066515684937
2023-01-07T02:52:22.157Z,1013.7010319201795
2023-01-07T02:57:32.774Z,1013.6316555946379
2023-01-07T03:02:48.924Z,1013.6047039968242
2023-01-07T03:07:58.159Z,1013.6423763639071
2023-01-07T03:13:01.422Z,1013.513786044799
2023-01-07T03:18:02.664Z,1013.4836883178084
2023-01-07T03:23:03.886Z,1013.4724253711341
2023-01-07T03:28:02.221Z,1013.4213063151618
2023-01-07T03:33:04.382Z,1013.3415864327166
2023-01-07T03:38:01.654Z,1013.3270824130841
2023-01-07T03:43:01.905Z,1013.4314440891279
2023-01-07T03:47:59.155Z,1013.3860133725408
2023-01-07T03:52:55.391Z,1013.393871504092
2023-01-07T03:57:51.715Z,1013.3430595118784
2023-01-07T04:02:47.984Z,1013.6166855830144
2023-01-07T04:07:44.192Z,1013.7424153619733
2023-01-07T04:12:40.450Z,1013.6817443475794
2023-01-07T04:17:36.777Z,1013.6144568035265
2023-01-07T04:22:33.002Z,1013.5148252768125
2023-01-07T04:27:29.219Z,1013.5073634522774
2023-01-07T04:32:25.486Z,1013.5759371662882
2023-01-07T04:37:21.779Z,1013.6953256343451
2023-01-07T04:42:18.043Z,1013.5631733906141
2023-01-07T04:47:14.277Z,1013.482632723689
2023-01-07T04:52:10.528Z,1013.5320391563399
2023-01-07T04:57:06.821Z,1013.5418216024614
2023-01-07T05:02:03.179Z,1013.5248380523938
2023-01-07T05:06:59.310Z,1013.5527210169084
2023-01-07T05:11:55.600Z,1013.5401105661191
2023-01-07T05:16:51.867Z,1013.5831779113277
2023-01-07T05:21:48.151Z,1013.5646826387607
2023-01-07T05:26:44.359Z,1013.5532718164922
2023-01-07T05:31:40.633Z,1013.5496013971747
2023-01-07T05:36:36.852Z,1013.4954673752801
2023-01-07T05:41:33.128Z,1013.591069587424
2023-01-07T05:46:29.406Z,1013.7011569271891
2023-01-07T05:51:25.663Z,1013.6822617170599
2023-01-07T05:56:26.899Z,1013.6012963599163
2023-01-07T06:01:23.261Z,1013.5646217765351
2023-01-07T06:06:19.441Z,1013.6327801322083
2023-01-07T06:11:15.667Z,1013.6687697544969
2023-01-07T06:16:13.025Z,1013.7496153734692
2023-01-07T06:21:09.200Z,1013.6969407452474
2023-01-07T06:26:05.445Z,1013.7706454122996
2023-01-07T06:31:01.790Z,1013.8696010090929
2023-01-07T06:35:57.987Z,1013.9368885056053
2023-01-07T06:40:54.266Z,1013.9680060703789
2023-01-07T06:45:50.477Z,1013.907265906912
2023-01-07T06:50:46.729Z,1013.9965729592623
2023-01-07T06:55:46.984Z,1013.9355427209231
2023-01-07T07:00:44.297Z,1013.9462148217029
2023-01-07T07:05:40.559Z,1013.907858469604
2023-01-07T07:10:36.777Z,1013.8851646645552
2023-01-07T07:15:33.082Z,1013.9589237943364
2023-01-07T07:20:29.358Z,1013.9859178256825
2023-01-07T07:25:25.576Z,1013.906085873234
2023-01-07T07:30:21.820Z,1013.8025756771199
2023-01-07T07:35:23.053Z,1013.8436341557748
2023-01-07T07:40:19.572Z,1013.9746964412551
2023-01-07T07:45:15.634Z,1013.8248851700479
2023-01-07T07:50:11.867Z,1013.8248121591225
2023-01-07T08:00:17.858Z,1013.8585749438164
2023-01-07T08:05:12.583Z,1013.9522186889284
2023-01-07T08:10:08.824Z,1013.832422498423
2023-01-07T08:15:07.078Z,1013.9311833843888
2023-01-07T08:20:07.369Z,1013.8443492366163
2023-01-07T08:25:06.575Z,1013.8053848877121
2023-01-07T08:30:02.912Z,1013.8318998526319
2023-01-07T08:34:59.164Z,1013.746777419356
2023-01-07T08:39:55.579Z,1013.7288128631297
2023-01-07T08:44:51.680Z,1013.6034786633145
2023-01-07T08:49:47.911Z,1013.6113639460075
2023-01-07T08:54:44.136Z,1013.7143542237246
2023-01-07T08:59:39.708Z,1013.7280275867738
2023-01-07T09:04:35.686Z,1013.6225053894447
2023-01-07T09:09:31.938Z,1013.6202098536113
2023-01-07T09:14:28.184Z,1013.5208495377589
2023-01-07T09:19:28.795Z,1013.5253251552634
2023-01-07T09:24:24.792Z,1013.5886993077386
2023-01-07T09:29:25.975Z,1013.544374005143
2023-01-07T09:34:22.200Z,1013.4896458666392
2023-01-07T09:39:22.476Z,1013.3549909982951
2023-01-07T09:44:22.753Z,1013.3898091756694
2023-01-07T09:49:27.236Z,1013.3252482531185
2023-01-07T09:54:30.243Z,1013.2389945603771
2023-01-07T09:59:29.499Z,1013.2528710967069
2023-01-07T10:04:33.737Z,1013.1299504964579
2023-01-07T10:09:40.985Z,1013.1105702214575
2023-01-07T10:15:00.166Z,1013.1043386546149
2023-01-07T10:20:03.407Z,1013.0771512000823
2023-01-07T10:25:04.617Z,1013.0994882040745
2023-01-07T10:30:09.011Z,1013.0553027542447
2023-01-07T10:35:14.096Z,1012.9962877410885
2023-01-07T10:40:25.425Z,1012.8469895986184
2023-01-07T10:45:39.607Z,1012.8429559982753
2023-01-07T10:50:48.771Z,1012.7742702993799
2023-01-07T10:56:03.001Z,1012.6744094972883
2023-01-07T11:00:59.385Z,1012.6346183677649
2023-01-07T11:06:00.160Z,1012.6008985391795
2023-01-07T11:11:02.424Z,1012.4635436752105
2023-01-07T11:16:06.007Z,1012.363990252314
2023-01-07T11:21:42.963Z,1012.2911953459256
2023-01-07T11:26:32.440Z,1012.1844565774569
2023-01-07T11:31:39.778Z,1012.1402047550076
2023-01-07T11:36:40.922Z,1012.0206591384834
2023-01-07T11:41:47.454Z,1012.0228358226242
2023-01-07T11:51:51.641Z,1011.922698133766
2023-01-07T11:57:01.874Z,1011.8887075611055
2023-01-07T12:02:03.336Z,1011.8880304070318
2023-01-07T12:07:04.324Z,1011.841079185786
2023-01-07T12:12:08.558Z,1011.7631220096434
2023-01-07T12:17:07.834Z,1011.722681783703
2023-01-07T12:22:13.137Z,1011.6921281421545
2023-01-07T12:27:17.397Z,1011.5873684311551
2023-01-07T12:32:23.596Z,1011.6161574057201
2023-01-07T12:37:27.794Z,1011.5149775963733
2023-01-07T12:42:36.264Z,1011.4671679637822
2023-01-07T12:47:41.245Z,1011.3994029854056
2023-01-07T12:52:45.503Z,1011.3962159867948
2023-01-07T12:57:45.721Z,1011.3419797866147
2023-01-07T13:02:47.977Z,1011.3430724316974
2023-01-07T13:07:55.235Z,1011.331917635318
2023-01-07T13:12:59.479Z,1011.3319328512076
2023-01-07T13:18:07.657Z,1011.2524180863459
2023-01-07T13:23:13.233Z,1011.1901698835172
2023-01-07T13:28:22.138Z,1011.2440748302952
2023-01-07T13:33:27.373Z,1011.2664053191432
2023-01-07T13:38:38.902Z,1011.3078996092258
2023-01-07T13:43:46.860Z,1011.1917150544207
2023-01-07T13:48:51.093Z,1011.1717397154299
2023-01-07T13:53:53.261Z,1011.22644181569
2023-01-07T14:04:18.771Z,1011.2346762572743
2023-01-07T14:09:18.511Z,1011.2745565178899
2023-01-07T14:14:23.222Z,1011.2318698606608
2023-01-07T14:19:30.487Z,1011.3168501063525
2023-01-07T14:24:48.229Z,1011.2303543446964
2023-01-07T14:29:56.490Z,1011.1528742310039
2023-01-07T14:34:57.338Z,1011.2105560850407
2023-01-07T14:40:07.376Z,1011.0866619095941
2023-01-07T14:45:08.711Z,1011.0373725515336
2023-01-07T14:50:17.907Z,1011.0045673510105
2023-01-07T14:55:40.084Z,1011.0138512644596
2023-01-07T15:00:53.851Z,1011.0210861774383
2023-01-07T15:06:09.515Z,1011.0039211806236
2023-01-07T15:11:10.744Z,1011.0597116137019
2023-01-07T15:16:13.503Z,1011.0522439248191
2023-01-07T15:21:22.234Z,1011.0001603155293
2023-01-07T15:26:29.466Z,1010.9756589972702
2023-01-07T15:31:34.742Z,1010.9895092051646
2023-01-07T15:36:30.902Z,1010.9802775536667
2023-01-07T15:41:31.896Z,1010.9741058940834
2023-01-07T15:46:31.530Z,1011.031742966316
2023-01-07T15:51:31.740Z,1011.0645867426022
2023-01-07T15:56:34.956Z,1010.9918087028144
2023-01-07T16:01:33.832Z,1010.9825449323266
2023-01-07T16:06:33.461Z,1010.942917302106
2023-01-07T16:11:30.682Z,1010.9145722301146
2023-01-07T16:16:29.090Z,1010.9267418101907
2023-01-07T16:21:34.717Z,1010.8392936574825
2023-01-07T16:26:37.433Z,1010.8369742282486
2023-01-07T16:31:40.675Z,1010.8264955877162
2023-01-07T16:36:42.929Z,1010.8141938652564
2023-01-07T16:41:42.369Z,1010.8488004069055
2023-01-07T16:46:50.465Z,1010.7093390716992
2023-01-07T16:51:53.650Z,1010.7785362460376
2023-01-07T16:56:57.112Z,1010.6471000566311
2023-01-07T17:01:59.173Z,1010.6805990142925
2023-01-07T17:06:57.410Z,1010.7240950861155
2023-01-07T17:11:58.877Z,1010.716643547914
2023-01-07T17:17:01.847Z,1010.6760683631329
2023-01-07T17:22:04.131Z,1010.7327101835524
2023-01-07T17:27:03.574Z,1010.7653855613155
2023-01-07T17:32:04.624Z,1010.7725831312794
2023-01-07T17:37:01.846Z,1010.7111294554129
2023-01-07T17:42:22.379Z,1010.7760819072705
2023-01-07T17:47:22.364Z,1010.7747677006439
2023-01-07T17:52:19.696Z,1010.7013698254027
2023-01-07T17:57:15.891Z,1010.6765540983798
2023-01-07T18:02:22.982Z,1010.8622851832797
2023-01-07T18:07:19.321Z,1010.8108581180973
2023-01-07T18:12:21.859Z,1010.815030095027
2023-01-07T18:22:28.602Z,1010.8826364994935
2023-01-07T18:27:32.752Z,1010.8805321366859
2023-01-07T18:32:30.159Z,1010.9107226268375
2023-01-07T18:37:26.855Z,1010.850862966828
2023-01-07T18:42:24.112Z,1010.8447101820514
2023-01-07T18:47:21.348Z,1010.8032726437808
2023-01-07T18:52:22.076Z,1010.7648298678905
2023-01-07T18:57:18.838Z,1010.7823399755065
2023-01-07T19:02:16.198Z,1010.786019754501
2023-01-07T19:07:17.347Z,1010.7738807884194
2023-01-07T19:12:13.862Z,1010.7659498067724
2023-01-07T19:17:14.820Z,1010.8185086467843
2023-01-07T19:22:15.267Z,1010.7333506584183
2023-01-07T19:27:12.409Z,1010.7026921460061
2023-01-07T19:32:08.654Z,1010.748067210737
2023-01-07T19:37:09.855Z,1010.7217132031487
2023-01-07T19:42:07.958Z,1010.732110179786
2023-01-07T19:47:04.402Z,1010.8242680600447
2023-01-07T19:52:01.620Z,1010.863525554859
2023-01-07T19:56:57.898Z,1010.8637132637841
2023-01-07T20:01:54.346Z,1010.7898436995278
2023-01-07T20:06:54.900Z,1010.7873025859498
2023-01-07T20:11:50.718Z,1010.749621968392
2023-01-07T20:16:53.239Z,1010.6612577886544
2023-01-07T20:21:50.144Z,1010.7247616051069
2023-01-07T20:26:54.419Z,1010.6956756660009
2023-01-07T20:31:56.679Z,1010.7369678186674
2023-01-07T20:36:57.871Z,1010.8099145432224
2023-01-07T20:42:00.232Z,1010.8395560939392
2023-01-07T20:47:00.370Z,1010.823778501568
2023-01-07T20:51:57.658Z,1010.7903431880208
2023-01-07T20:56:57.882Z,1010.7853613375643
2023-01-07T21:02:00.867Z,1010.8438276777335
2023-01-07T21:06:57.427Z,1010.8143562932341
2023-01-07T21:11:54.653Z,1010.7714609464997
2023-01-07T21:16:56.105Z,1010.7715547364807
2023-01-07T21:21:59.345Z,1010.7461162481501
2023-01-07T21:27:00.383Z,1010.7226088673118
2023-01-07T21:31:58.858Z,1010.7345775006687
2023-01-07T21:36:55.914Z,1010.6562669350891
2023-01-07T21:41:52.249Z,1010.5327576233595
2023-01-07T21:46:48.427Z,1010.5994911022302
2023-01-07T21:51:49.664Z,1010.5060399977069
2023-01-07T21:56:48.915Z,1010.5235354485366
2023-01-07T22:01:50.483Z,1010.5156853513718
2023-01-07T22:06:50.397Z,1010.522368748464
2023-01-07T22:11:47.684Z,1010.5225210803177
2023-01-07T22:16:49.231Z,1010.4330116059178
2023-01-07T22:21:46.151Z,1010.4459378528626
2023-01-07T22:26:43.447Z,1010.4719876520447
2023-01-07T22:31:44.784Z,1010.4316141481422
2023-01-07T22:36:46.133Z,1010.4291302022208
2023-01-07T22:46:53.930Z,1010.2441064369891
2023-01-07T22:51:51.672Z,1010.1752710160634
2023-01-07T22:56:47.976Z,1010.2679596821348
2023-01-07T23:01:46.199Z,1010.1991668614367
2023-01-07T23:06:42.873Z,1010.1454161236511
2023-01-07T23:11:38.705Z,1010.0719776529728
2023-01-07T23:16:36.120Z,1010.0597785270896
2023-01-07T23:21:35.229Z,1010.009270548551
2023-01-07T23:26:32.066Z,1009.9955887797598
2023-01-07T23:31:32.766Z,1009.9866930610935
2023-01-07T23:36:34.937Z,1010.005379080811
2023-01-07T23:41:31.193Z,1010.051336697911
2023-01-07T23:46:27.517Z,1009.9563593017779
2023-01-07T23:51:23.732Z,1009.8080108161663
2023-01-07T23:56:22.003Z,1009.8475401959035
